Scottish Airport Reports

Civil airfields updated at H+20 and H+50
RAF airfields updated at H+50 only

EGPD - Aberdeen
Distance from station: NNE 19mi, 31km
Updated: 28/01/2020 11:20
Clear
Clear
 Wind from W
Wind: W 8 mph , 13 km/h
Temperature: 3°C
Wind Chill: -1°C
Dew Point: -1°C
Humidity: 75%
Barometer: 983 hPa
Clouds: Clear
Visibility: 6 miles , 10 km
2020/01/28 11:20 EGPD 281120Z AUTO 26007KT 9999 NCD 03/M01 Q0983
EGPN - Dundee
Distance from station: SW 41mi, 66km
Updated: 28/01/2020 11:20
Few Clouds
Few Clouds
 Wind from SW
Wind: SW 9 mph , 15 km/h
Temperature: 4°C
Wind Chill: 1°C
Dew Point: 2°C
Humidity: 87%
Barometer: 985 hPa
Clouds: Few Clouds
Visibility: 6 miles , 10 km
Cloud details: Few Clouds 1000 ft
2020/01/28 11:20 EGPN 281120Z 23008KT 9999 FEW010 04/02 Q0985
 
EGQS - RAF Lossiemouth
Distance from station: NNW 63mi, 102km
Updated: 28/01/2020 11:21
Mostly cloudy
Mostly cloudy
 Wind from ESE
Wind: ESE 6 mph , 9 km/h
Temperature: 2°C
Wind Chill: -1°C
Dew Point: 0°C
Humidity: 87%
Barometer: 983 hPa
Clouds: Mostly cloudy
Visibility: 6 miles , 10 km
Cloud details: Few Clouds 1500 ft
Mostly cloudy 25000 ft
2020/01/28 11:21 EGQS 281121Z 12005KT 9999 FEW015 BKN250 02/M00 Q0983 NOSIG RMK BLU BLU
EGPE - Inverness
Distance from station: WNW 73mi, 117km
Updated: 28/01/2020 11:20
Few Clouds
Few Clouds
 Wind from SW
Wind: SW 7 mph , 11 km/h
Temperature: 1°C
Wind Chill: -2°C
Dew Point: -1°C
Humidity: 87%
Barometer: 983 hPa
Clouds: Few Clouds
Visibility: 6 miles , 10 km
Cloud details: Few Clouds 700 ft
2020/01/28 11:20 EGPE 281120Z 23006KT 9999 FEW007 01/M01 Q0983
 
EGPH - Edinburgh
Distance from station: SSW 77mi, 125km
Updated: 28/01/2020 11:20
Partly cloudy
Partly cloudy
 Wind from SW
Wind: SW 12 mph , 19 km/h
Temperature: 3°C
Wind Chill: -2°C
Dew Point: 2°C
Humidity: 93%
Barometer: 985 hPa
Clouds: Partly cloudy
Visibility: 6 miles , 10 km
Cloud details: Partly cloudy 1400 ft
2020/01/28 11:20 EGPH 281120Z 22010KT 9999 SCT014 03/02 Q0985
EGPC - Wick
Distance from station: NNW 107mi, 172km
Updated: 28/01/2020 11:20
Few Clouds
Few Clouds
 Wind from W
Wind: W 1 mph , 2 km/h
Temperature: 2°C
Dew Point: 1°C
Humidity: 93%
Barometer: 982 hPa
Clouds: Few Clouds
Visibility: 6 miles , 10 km
Cloud details: Few Clouds 800 ft
2020/01/28 11:20 EGPC 281120Z 26001KT 9999 FEW008 02/01 Q0982
 
EGPF - Glasgow
Distance from station: SW 107mi, 172km
Updated: 28/01/2020 11:20
Clear
Clear
 Wind from SSW
Wind: SSW 9 mph , 15 km/h
Temperature: 4°C
Wind Chill: 1°C
Dew Point: 2°C
Humidity: 87%
Barometer: 985 hPa
Clouds: Clear
Visibility: 6 miles , 10 km
2020/01/28 11:20 EGPF 281120Z AUTO 20008KT 170V240 9999 NCD 04/02 Q0985
EGPK - Prestwick
Distance from station: SW 130mi, 209km
Updated: 28/01/2020 10:50
Mostly cloudy
Mostly cloudy
 Wind from SW
Wind: SW 20 mph , 31 km/h
Temperature: 5°C
Wind Chill: 0°C
Dew Point: 2°C
Humidity: 81%
Barometer: 986 hPa
Clouds: Mostly cloudy
Visibility: 6 miles , 10 km
Cloud details: Partly cloudy 1600 ft
Mostly cloudy 2400 ft
2020/01/28 10:50 EGPK 281050Z 22017KT 9999 SCT016 BKN024 05/02 Q0986
 
EGPA - Kirkwall, Orkney
Distance from station: N 140mi, 225km
Updated: 28/01/2020 11:20
Nearby showers, Mostly cloudy
Nearby showers, Mostly cloudy
 Wind from S
Wind: S 2 mph , 4 km/h
Temperature: 3°C
Dew Point: 2°C
Humidity: 93%
Barometer: 982 hPa
Summary: Nearby Showers
Clouds: Mostly cloudy
Visibility: 6 miles , 10 km
Cloud details: Partly cloudy 600 ft
Mostly cloudy 3600 ft
2020/01/28 11:20 EGPA 281120Z 18002KT 9999 5000N VCSH SCT006 BKN036 03/02 Q0982
EGPO - Stornoway, Outer Hebrides
Distance from station: WNW 169mi, 273km
Updated: 28/01/2020 11:20
Nearby showers, Mostly cloudy
Nearby showers, Mostly cloudy
 Wind from S
Wind: S 17 mph , 28 km/h
Temperature: 4°C
Wind Chill: -1°C
Dew Point: 3°C
Humidity: 93%
Barometer: 980 hPa
Summary: Nearby Showers
Clouds: Mostly cloudy
Visibility: 6 miles , 10 km
Cloud details: Few Clouds 600 ft
Partly cloudy 1100 ft
Mostly cloudy 2000 ft
2020/01/28 11:20 EGPO 281120Z 18015KT 9999 VCSH FEW006 SCT011 BKN020 04/03 Q0980
 
EGPI - Islay, Inner Hebrides
Distance from station: WSW 172mi, 276km
Updated: 28/01/2020 11:20
Rain, Mostly cloudy
Rain, Mostly cloudy
 Wind from WSW
Wind: WSW 25 mph , 41 km/h
Temperature: 5°C
Wind Chill: -1°C
Dew Point: 4°C
Humidity: 93%
Barometer: 985 hPa
Summary: Rain
Clouds: Mostly cloudy
Visibility: 2 miles , 4 km
Cloud details: Few Clouds 1300 ft
Mostly cloudy 3000 ft
2020/01/28 11:20 EGPI 281120Z 24022KT 3800 RA FEW013 BKN030 05/04 Q0985
EGPU - Tiree, Inner Hebrides
Distance from station: W 172mi, 276km
Updated: 28/01/2020 11:20
Nearby showers, Mostly cloudy
Nearby showers, Mostly cloudy
 Wind from W
Wind: W 15 mph , 24 km/h
Temperature: 5°C
Wind Chill: 1°C
Dew Point: 3°C
Humidity: 87%
Barometer: 982 hPa
Summary: Nearby Showers
Clouds: Mostly cloudy
Visibility: 6 miles , 10 km
Cloud details: Few Clouds 2200 ft
Mostly cloudy 2900 ft
2020/01/28 11:20 EGPU 281120Z 27013KT 9999 VCSH FEW022 BKN029 05/03 Q0982 RESHRA
 
EGPB - Sumburgh, Shetland
Distance from station: NNE 208mi, 332km
Updated: 28/01/2020 11:20
Nearby showers, Mostly cloudy
Nearby showers, Mostly cloudy
 Wind from SE
Wind: SE 20 mph , 31 km/h
Temperature: 4°C
Wind Chill: -2°C
Dew Point: 2°C
Humidity: 87%
Barometer: 983 hPa
Summary: Nearby Showers
Clouds: Mostly cloudy
Visibility: 6 miles , 10 km
Cloud details: Few Clouds 1200 ft
Mostly cloudy 1800 ft
2020/01/28 11:20 EGPB 281120Z 14017KT 9999 VCSH FEW012 BKN018 04/02 Q0983
EGPM - Scatsa, Shetland
Distance from station: NNE 245mi, 392km
Updated: 28/01/2020 11:20
Nearby showers, Partly cloudy
Nearby showers, Partly cloudy
 Wind from SSW
Wind: SSW 5 mph , 7 km/h
Temperature: 2°C
Wind Chill: 0°C
Dew Point: 1°C
Humidity: 93%
Barometer: 983 hPa
Summary: Nearby Showers
Clouds: Partly cloudy
Visibility: 6 miles , 10 km
Cloud details: Few Clouds 1400 ft
Partly cloudy 3000 ft
2020/01/28 11:20 EGPM 281120Z 20004KT 170V230 9999 VCSH FEW014 SCT030 02/01 Q0983 TEMPO SHRASN
-->